Tiempo atmosférico en la estación meteorológica de Pollença Aeródromo, Illes Balears (2 m.)



Fecha
DESCASC
Temp. máxima en grados centígrados (hora)
DESCASC
Temp. mínima en grados centígrados (hora)
DESCASC
Temp. media en grados centígrados
DESCASC
Racha de viento máxima en m/sg (hora)
DESCASC
Velocidad máxima media en intervalos de 10 minutos(hora)
DESCASC
Precipitaciones diarias en mm
DESCASC
Precipitaciones de 00:00 a 06:00 en mm
DESCASC
Precipitaciones de 06:00 a 12:00 en mm
DESCASC
Precipitaciones de 12:00 a 18:00 en mm
DESCASC
Precipitaciones de 18:00 a 24:00 en mm
DESCASC

Gráficas

Temp. máximas Temp. mínimas Temp. medias Precipitaciones Rachas de viento máximas Velocidades máximas media en intervalos de 10 minutos

Datos horarios

Fecha y hora oficial Temperatura (ºC) Velocidad del viento (km/h) Dirección del viento Racha (km/h) Dirección de racha Precipitación (mm) Presión (hPa) Tendencia (hPa) Humedad (%)
2020-01-28 23:00:00 9.8 2 Norte 9 Nordeste 0 -- -- 96
2020-01-28 22:00:00 10.9 3 Nordeste 8 Nordeste 0 -- -- 94
2020-01-28 21:00:00 11.8 3 Norte 9 Sudeste 0 -- -- 94
2020-01-28 20:00:00 12 2 Sudeste 6 Norte 0 -- -- 84
2020-01-28 19:00:00 14.3 0 Calma 11 Oeste 0 -- -- 73
2020-01-28 18:00:00 17.5 4 Noroeste 14 Norte 0 -- -- 53
2020-01-28 17:00:00 19.1 5 Noroeste 27 Oeste 0 -- -- 52
2020-01-28 16:00:00 20.7 7 Noroeste 25 Sudoeste 0 -- -- 48
2020-01-28 15:00:00 20.7 9 Norte 25 Sudoeste 0 -- -- 50
2020-01-28 14:00:00 21.1 6 Noroeste 29 Oeste 0 -- -- 49
2020-01-28 13:00:00 20.9 6 Noroeste 23 Noroeste 0 -- -- 50
2020-01-28 12:00:00 20.4 2 Sur 8 Este 0 -- -- 58
2020-01-28 11:00:00 17.4 2 Este 6 Nordeste 0 -- -- 69
2020-01-28 10:00:00 12.2 0 Calma 5 Nordeste 0 -- -- 99
2020-01-28 09:00:00 8.9 3 Norte 10 Norte 0 -- -- 100
2020-01-28 08:00:00 8 3 Norte 8 Norte 0 -- -- 100
2020-01-28 07:00:00 8 2 Norte 7 Este 0 -- -- 100
2020-01-28 06:00:00 8.3 3 Norte 8 Norte 0 -- -- 100
2020-01-28 05:00:00 8.5 4 Nordeste 9 Norte 0 -- -- 100
2020-01-28 04:00:00 8.5 3 Norte 10 Nordeste 0 -- -- 100
2020-01-28 03:00:00 8.5 4 Norte 8 Norte 0 -- -- 100
2020-01-28 02:00:00 8.4 3 Norte 12 Norte 0 -- -- 100
2020-01-28 01:00:00 7.7 3 Nordeste 7 Nordeste 0 -- -- 100
2020-01-28 00:00:00 7.5 2 Nordeste 6 Este 0 -- -- 100
2020-01-27 23:00:00 7.8 3 Nordeste 5 Este 0 -- -- 99
2020-01-27 22:00:00 8.3 3 Nordeste 6 Nordeste 0 -- -- 95
2020-01-27 21:00:00 9.1 2 Noroeste 6 Norte 0 -- -- 94
2020-01-27 20:00:00 9.7 0 Calma 5 Norte 0 -- -- 92
2020-01-27 19:00:00 11.6 0 Calma 13 Sudoeste 0 -- -- 86
2020-01-27 18:00:00 13.8 6 Sudoeste 34 Sudoeste 0 -- -- 78
2020-01-27 17:00:00 15 26 Sur 33 Sur 0 -- -- 74
2020-01-27 16:00:00 17.4 3 Sur 31 Sudoeste 0 -- -- 58
2020-01-27 15:00:00 17.1 23 Sur 32 Sudoeste 0 -- -- 64
2020-01-27 14:00:00 18.2 7 Sudoeste 28 Sudoeste 0 -- -- 61
2020-01-27 13:00:00 16.7 17 Sur 29 Sudoeste 0 -- -- 68
2020-01-27 12:00:00 16.8 6 Sur 14 Sudeste 0 -- -- 66
2020-01-27 11:00:00 14.8 3 Sur 8 Sudoeste 0 -- -- 69
2020-01-27 10:00:00 11.5 3 Sur 8 Sur 0 -- -- 93
2020-01-27 09:00:00 7.9 0 Calma 6 Norte 0 -- -- 100
2020-01-27 08:00:00 7.7 2 Nordeste 5 Este 0 -- -- 99
2020-01-27 07:00:00 9.8 0 Calma 10 Sudoeste 0 -- -- 94
2020-01-27 06:00:00 11.6 2 Oeste 13 Oeste 0 -- -- 87
2020-01-27 05:00:00 12 3 Noroeste 19 Noroeste 0 -- -- 86
2020-01-27 04:00:00 12.1 6 Noroeste 20 Oeste 0 -- -- 84
2020-01-27 03:00:00 10.1 4 Noroeste 18 Norte 0 -- -- 100
2020-01-27 02:00:00 7.6 2 Este 5 Sudeste 0 -- -- 100
2020-01-27 01:00:00 7.7 0 Calma 4 Sudeste 0 -- -- 100
2020-01-27 00:00:00 8.6 0 Calma 4 Sur 0 -- -- 99
2020-01-26 23:00:00 9.8 2 Norte 7 Oeste 0 -- -- 96
2020-01-26 22:00:00 11.1 0 Calma 12 Oeste 0 -- -- 89
2020-01-26 21:00:00 12.4 3 Noroeste 15 Oeste 0 -- -- 81
2020-01-26 20:00:00 12.8 6 Norte 21 Norte 0 -- -- 81
2020-01-26 19:00:00 12.9 4 Noroeste 23 Oeste 0 -- -- 78
2020-01-26 18:00:00 13.3 6 Noroeste 23 Norte 0 -- -- 78
2020-01-26 17:00:00 15 6 Noroeste 25 Oeste 0 -- -- 74
2020-01-26 16:00:00 16.2 6 Noroeste 25 Oeste 0 -- -- 74
2020-01-26 15:00:00 15.8 5 Noroeste 23 Oeste 0 -- -- 80
2020-01-26 14:00:00 16.1 7 Noroeste 16 Norte 0 -- -- 76
2020-01-26 13:00:00 16.6 4 Noroeste 16 Nordeste 0 -- -- 72
2020-01-26 12:00:00 16 6 Noroeste 26 Noroeste 0 -- -- 80
2020-01-26 11:00:00 15.4 4 Noroeste 15 Sur 0 -- -- 86
2020-01-26 10:00:00 12.3 3 Sur 6 Este 0 -- -- 100
2020-01-26 09:00:00 8.6 3 Norte 4 Norte 0 -- -- 100
2020-01-26 08:00:00 7.1 3 Norte 4 Norte 0 -- -- 100
2020-01-26 07:00:00 6.9 0 Calma 4 Sur 0 -- -- 100
2020-01-26 06:00:00 7.6 2 Este 5 Sudeste 0 -- -- 100
2020-01-26 05:00:00 7.6 3 Norte 4 Noroeste 0 -- -- 100
2020-01-26 04:00:00 7.9 0 Calma 4 Norte 0 -- -- 100
2020-01-26 03:00:00 8.2 3 Norte 8 Norte 0 -- -- 100
2020-01-26 02:00:00 8.5 0 Calma 4 Oeste 0 -- -- 100
2020-01-26 01:00:00 9 0 Calma 3 Norte 0 -- -- 100
2020-01-26 00:00:00 9.6 0 Calma 5 Norte 0 -- -- 100
2020-01-25 23:00:00 10.4 3 Nordeste 4 Nordeste 0 -- -- 100
2020-01-25 22:00:00 11.2 0 Calma 3 Este 0 -- -- 100
2020-01-25 21:00:00 11.3 0 Calma 5 Nordeste 0 -- -- 100
2020-01-25 20:00:00 12.1 0 Calma 5 Sur 0 -- -- 100
2020-01-25 19:00:00 13.5 4 Sudeste 15 Este 0 -- -- 94
2020-01-25 18:00:00 14.4 8 Este 16 Este 0 -- -- 94
2020-01-25 17:00:00 15.1 4 Este 14 Este 0 -- -- 90
2020-01-25 16:00:00 15.7 3 Sudeste 17 Nordeste 0 -- -- 86
2020-01-25 15:00:00 16.6 4 Este 13 Este 0 -- -- 79
2020-01-25 14:00:00 16.4 6 Este 12 Este 0 -- -- 80
2020-01-25 13:00:00 16.7 6 Sudeste 10 Este 0 -- -- 80
2020-01-25 12:00:00 15.7 4 Sur 10 Sur 0 -- -- 89
2020-01-25 11:00:00 14.4 5 Sur 15 Este 0 -- -- 100
2020-01-25 10:00:00 12.2 3 Sudeste 5 Sudeste 0 -- -- 100
2020-01-25 09:00:00 8.9 0 Calma 3 Nordeste 0 -- -- 100
2020-01-25 08:00:00 8.9 0 Calma 4 Sur 0 -- -- 100
2020-01-25 07:00:00 10.3 3 Sur 7 Sudeste 0 -- -- 100
2020-01-25 06:00:00 11.1 3 Este 7 Sudeste 0 -- -- 100
2020-01-25 05:00:00 10.6 3 Sudeste 7 Sudeste 0 -- -- 100
2020-01-25 04:00:00 9.5 0 Calma 4 Sudeste 0 -- -- 100
2020-01-25 03:00:00 8.9 0 Calma 3 Nordeste 0 -- -- 100
2020-01-25 02:00:00 8.5 0 Calma 3 Nordeste 0 -- -- 100
2020-01-25 01:00:00 7.7 0 Calma 3 Noroeste 0 -- -- 100
2020-01-25 00:00:00 7.5 0 Calma 2 Noroeste 0 -- -- 100
2020-01-24 23:00:00 7.8 0 Calma 3 Este 0 -- -- 100
2020-01-24 22:00:00 8 0 Calma 3 Sudoeste 0 -- -- 100
2020-01-24 21:00:00 8.5 0 Calma 2 Este 0 -- -- 100
2020-01-24 20:00:00 9.2 0 Calma 2 Nordeste 0 -- -- 100
2020-01-24 19:00:00 10.9 0 Calma 9 Norte 0 -- -- 96
2020-01-24 18:00:00 12.6 5 Norte 12 Norte 0 -- -- 89
2020-01-24 17:00:00 14.7 6 Norte 16 Norte 0 -- -- 78
2020-01-24 16:00:00 16.7 7 Norte 17 Nordeste 0 -- -- 67
2020-01-24 15:00:00 17.3 10 Norte 18 Nordeste 0 -- -- 62
2020-01-24 14:00:00 18 3 Oeste 12 Nordeste 0 -- -- 56
2020-01-24 13:00:00 17.5 3 Oeste 10 Oeste 0 -- -- 63
2020-01-24 12:00:00 17 2 Noroeste 12 Oeste 0 -- -- 70
2020-01-24 11:00:00 15.9 3 Oeste 11 Norte 0 -- -- 79
2020-01-24 10:00:00 13.5 5 Norte 10 Norte 0 -- -- 100
2020-01-24 09:00:00 9.7 2 Norte 5 Este 0 -- -- 100
2020-01-24 08:00:00 9.4 3 Norte 5 Norte 0 -- -- 100
2020-01-24 07:00:00 10.5 2 Norte 8 Norte 0 -- -- 100
2020-01-24 06:00:00 11.1 3 Norte 8 Norte 0 -- -- 100
2020-01-24 05:00:00 11.3 3 Norte 11 Nordeste 0 -- -- 100
2020-01-24 04:00:00 9.6 3 Norte 10 Norte 0 -- -- 100
2020-01-24 03:00:00 8.9 0 Calma 8 Norte 0 -- -- 100
2020-01-24 02:00:00 8.5 3 Norte 5 Norte 0 -- -- 100
2020-01-24 01:00:00 8.3 0 Calma 3 Noroeste 0 -- -- 100
2020-01-24 00:00:00 8.8 3 Norte 5 Norte 0 -- -- 100
2020-01-23 23:00:00 9.4 4 Norte 7 Nordeste 0 -- -- 100
2020-01-23 22:00:00 9.1 3 Norte 8 Norte 0 -- -- 100
2020-01-23 21:00:00 8.6 3 Norte 5 Norte 0 -- -- 100
2020-01-23 20:00:00 9.5 2 Norte 6 Nordeste 0 -- -- 99
2020-01-23 19:00:00 11.2 2 Norte 11 Nordeste 0 -- -- 94
2020-01-23 18:00:00 13.5 4 Nordeste 15 Este 0 -- -- 86
2020-01-23 17:00:00 15.1 9 Este 19 Nordeste 0 -- -- 78
2020-01-23 16:00:00 16.6 11 Este 20 Este 0 -- -- 71
2020-01-23 15:00:00 18 4 Este 11 Este 0 -- -- 64
2020-01-23 14:00:00 19.5 5 Sudeste 8 Sudeste 0 -- -- 62
2020-01-23 13:00:00 18.2 4 Sudeste 10 Sudeste 0 -- -- 67
2020-01-23 12:00:00 17 3 Sudeste 8 Sudeste 0 -- -- 77
2020-01-23 11:00:00 15.8 3 Sudeste 6 Sudeste 0 -- -- 100
2020-01-23 10:00:00 11.9 2 Norte 4 Norte 0 -- -- 100
2020-01-23 09:00:00 10.2 0 Calma 4 Norte 0 -- -- 100
2020-01-23 08:00:00 8.6 2 Sudeste 5 Este 0 -- -- 100
2020-01-23 07:00:00 8.9 0 Calma 5 Este 0 -- -- 100
2020-01-23 06:00:00 9.6 0 Calma 4 Sur 0 -- -- 100
2020-01-23 05:00:00 10.6 0 Calma 3 Norte 0 -- -- 100
2020-01-23 04:00:00 12.6 2 Noroeste 14 Sur 0.2 -- -- 100
2020-01-23 03:00:00 13.3 5 Sur 12 Sudeste 0 -- -- 100
2020-01-23 02:00:00 13.5 4 Este 12 Sur 0 -- -- 100
2020-01-23 01:00:00 14.3 5 Sudoeste 17 Este 0.2 -- -- 100
2020-01-23 00:00:00 14.7 7 Este 20 Sudeste 1.8 -- -- 100
2020-01-22 23:00:00 15.4 3 Oeste 14 Norte 0 -- -- 93
2020-01-22 22:00:00 15.4 5 Norte 26 Este 0 -- -- 92
2020-01-22 21:00:00 15.1 8 Sudeste 28 Sudeste 0 -- -- 90
2020-01-22 20:00:00 15.2 14 Sudeste 37 Sudeste 0 -- -- 89
2020-01-22 19:00:00 15.3 21 Sudeste 39 Sudeste 0 -- -- 88
2020-01-22 18:00:00 15.3 19 Sudeste 34 Sudeste 0 -- -- 88
2020-01-22 17:00:00 16 20 Sudeste 36 Sudeste 0 -- -- 85
2020-01-22 16:00:00 16.5 22 Sudeste 33 Sudeste 0 -- -- 83
2020-01-22 15:00:00 17.1 16 Sudeste 26 Sudeste 0 -- -- 82
2020-01-22 14:00:00 16.8 18 Sudeste 32 Sudeste 0 -- -- 82
2020-01-22 13:00:00 17 9 Este 31 Este 0 -- -- 83
2020-01-22 12:00:00 15.5 11 Sudeste 29 Sudeste 0 -- -- 100
2020-01-22 11:00:00 14.7 5 Nordeste 19 Norte 0 -- -- 100
2020-01-22 10:00:00 14.2 6 Nordeste 14 Nordeste 0 -- -- 100
2020-01-22 09:00:00 11.7 0 Calma 5 Sudoeste 0 -- -- 100
2020-01-22 08:00:00 10.8 0 Calma 5 Norte 0 -- -- 100
2020-01-22 07:00:00 10.4 0 Calma 5 Norte 0 -- -- 100
2020-01-22 06:00:00 10.2 0 Calma 8 Sudoeste 0 -- -- 100
2020-01-22 05:00:00 9.1 2 Norte 4 Norte 0 -- -- 100
2020-01-22 04:00:00 9.5 0 Calma 2 Noroeste 0 -- -- 100
2020-01-22 03:00:00 10 0 Calma 3 Norte 0 -- -- 100
2020-01-22 02:00:00 10.5 2 Norte 5 Norte 0 -- -- 100
2020-01-22 01:00:00 11.4 2 Norte 3 Norte 0 -- -- 100
2020-01-22 00:00:00 12.9 0 Calma 8 Sudeste 0 -- -- 98
2020-01-21 23:00:00 14.5 3 Sudeste 19 Sudeste 0 -- -- 92
2020-01-21 22:00:00 15.1 7 Este 23 Este 0 -- -- 89
2020-01-21 21:00:00 15 11 Sudeste 35 Sudeste 0 -- -- 84
2020-01-21 20:00:00 15.3 19 Sudeste 39 Sudeste 0 -- -- 82
2020-01-21 19:00:00 15.2 17 Sudeste 46 Este 0.4 -- -- 84
2020-01-21 18:00:00 14.5 22 Sudeste 55 Sudeste 0.6 -- -- 92
2020-01-21 17:00:00 13.4 14 Oeste 71 Sudeste 5.8 -- -- 97
2020-01-21 16:00:00 13.3 22 Este 85 Este 2.6 -- -- 93
2020-01-21 15:00:00 15.2 22 Sur 59 Sudeste 0 -- -- 88
2020-01-21 14:00:00 15.3 19 Sur 69 Sur 0 -- -- 86
2020-01-21 13:00:00 15.5 23 Sur 80 Sudeste 0 -- -- 84
2020-01-21 12:00:00 15.6 36 Sudeste 86 Sudeste 0 -- -- 83
2020-01-21 11:00:00 15.6 39 Sudeste 78 Sudeste 0 -- -- 83
2020-01-21 10:00:00 15.2 32 Sudeste 63 Sudeste 0 -- -- 87
2020-01-21 09:00:00 15.3 12 Oeste 38 Sudeste 0 -- -- 88
2020-01-21 08:00:00 15.2 15 Sur 51 Sudeste 0 -- -- 88
2020-01-21 07:00:00 14.8 10 Sudoeste 56 Sudeste 0.2 -- -- 91
2020-01-21 06:00:00 15.2 18 Sur 59 Sudeste 0 -- -- 86
2020-01-21 05:00:00 15.2 29 Sudeste 67 Sudeste 0 -- -- 84
2020-01-21 04:00:00 15.1 20 Sur 50 Sudeste 0 -- -- 88
2020-01-21 03:00:00 15.1 21 Sur 56 Sudeste 0 -- -- 89
2020-01-21 02:00:00 15.1 16 Sur 62 Sudeste 0 -- -- 89
2020-01-21 01:00:00 15.1 12 Sudoeste 37 Sudeste 0.2 -- -- 92
2020-01-21 00:00:00 14.2 13 Norte 42 Este 0 -- -- 97
2020-01-20 23:00:00 14.2 17 Nordeste 44 Nordeste 0 -- -- 96
2020-01-20 22:00:00 13.9 13 Nordeste 53 Norte 0 -- -- 92
2020-01-20 21:00:00 13.5 20 Norte 46 Norte 1.2 -- -- 96
2020-01-20 20:00:00 14 13 Norte 36 Nordeste 0 -- -- 92
2020-01-20 19:00:00 13.6 11 Este 27 Sudeste 0 -- -- 89
2020-01-20 18:00:00 13.6 12 Sudeste 28 Sudeste 0 -- -- 93
2020-01-20 17:00:00 13.4 8 Sudoeste 44 Sudeste 1.2 -- -- 96
2020-01-20 16:00:00 13.3 15 Sudeste 35 Sudeste 0.4 -- -- 97
2020-01-20 15:00:00 13.1 15 Nordeste 54 Norte 0 -- -- 92
2020-01-20 14:00:00 13.2 26 Nordeste 56 Nordeste 0 -- -- 88
2020-01-20 13:00:00 13 19 Nordeste 48 Este 0 -- -- 90
2020-01-20 12:00:00 12.4 21 Nordeste 51 Nordeste 1.6 -- -- 99
2020-01-20 11:00:00 12.2 21 Nordeste 53 Nordeste 0.2 -- -- 92
2020-01-20 10:00:00 11.6 24 Nordeste 59 Este 1.2 -- -- 91
2020-01-20 09:00:00 12 23 Nordeste 60 Nordeste 0.2 -- -- 88
2020-01-20 08:00:00 11.6 23 Nordeste 57 Norte 0.2 -- -- 91
2020-01-20 07:00:00 11.2 21 Nordeste 55 Nordeste 0.8 -- -- 90
2020-01-20 06:00:00 10.9 20 Nordeste 57 Norte 1.6 -- -- 95
2020-01-20 05:00:00 10.9 28 Nordeste 59 Este 3.4 -- -- 96
2020-01-20 04:00:00 10.7 15 Nordeste 45 Este 5.6 -- -- 100
2020-01-20 03:00:00 10.8 23 Nordeste 52 Nordeste 6.8 -- -- 100
2020-01-20 02:00:00 10.5 16 Nordeste 62 Norte 8.6 -- -- 100
2020-01-20 01:00:00 10.3 19 Nordeste 62 Nordeste 8.4 -- -- 100
2020-01-20 00:00:00 10 19 Nordeste 68 Norte 4.4 -- -- 100
2020-01-19 23:00:00 10.1 26 Norte 80 Norte 1.4 -- -- 95
2020-01-19 22:00:00 9.9 26 Nordeste 67 Norte 1 -- -- 95
2020-01-19 21:00:00 10 23 Nordeste 75 Norte 1.4 -- -- 94
2020-01-19 20:00:00 9.9 28 Nordeste 69 Norte 1.2 -- -- 94
2020-01-19 19:00:00 10.1 30 Nordeste 64 Nordeste 2.6 -- -- 98
2020-01-19 18:00:00 10 29 Nordeste 67 Nordeste 3.2 -- -- 97
2020-01-19 17:00:00 10.9 17 Nordeste 63 Norte 0.8 -- -- 94
2020-01-19 16:00:00 11 23 Nordeste 65 Norte 2 -- -- 99
2020-01-19 15:00:00 11.1 26 Nordeste 59 Nordeste 3.6 -- -- 100
2020-01-19 14:00:00 11.1 20 Norte 57 Norte 3.2 -- -- 100
2020-01-19 13:00:00 11.3 18 Nordeste 47 Nordeste 2.2 -- -- 100
2020-01-19 12:00:00 11.8 15 Nordeste 37 Norte 3.8 -- -- 100
2020-01-19 11:00:00 12.2 8 Nordeste 30 Norte 4.6 -- -- 100
2020-01-19 10:00:00 12.6 13 Nordeste 30 Nordeste 1.8 -- -- 96
2020-01-19 09:00:00 13.1 11 Nordeste 23 Nordeste 0 -- -- 95
2020-01-19 08:00:00 12.1 5 Nordeste 13 Norte 0 -- -- 100
2020-01-19 07:00:00 10.6 0 Calma 5 Este 0 -- -- 100
2020-01-19 06:00:00 10.7 2 Norte 3 Nordeste 0.4 -- -- 100
2020-01-19 05:00:00 11.1 3 Oeste 8 Sudeste 0 -- -- 100
2020-01-19 04:00:00 10.4 2 Este 5 Sudeste 0 -- -- 100
2020-01-19 03:00:00 10.1 0 Calma 4 Este 0 -- -- 100
2020-01-19 02:00:00 9.9 0 Calma 5 Norte 0 -- -- 100
2020-01-19 01:00:00 9.4 2 Norte 4 Norte 0 -- -- 100
2020-01-19 00:00:00 8.5 2 Norte 5 Norte 0 -- -- 100
2020-01-18 23:00:00 7.3 3 Norte 6 Norte 0 -- -- 97
2020-01-18 22:00:00 7.4 0 Calma 6 Norte 0 -- -- 95
2020-01-18 21:00:00 7.6 3 Norte 5 Este 0 -- -- 93
2020-01-18 20:00:00 8.6 3 Nordeste 9 Sur 0 -- -- 86
2020-01-18 19:00:00 12.2 6 Sur 12 Sudeste 0 -- -- 77
2020-01-18 18:00:00 12.1 4 Este 11 Norte 0 -- -- 74
2020-01-18 17:00:00 15.3 6 Norte 14 Norte 0 -- -- 61
2020-01-18 16:00:00 17.4 4 Norte 14 Sur 0 -- -- 54
2020-01-18 15:00:00 17.8 7 Sur 18 Sur 0 -- -- 57
2020-01-18 14:00:00 17.8 7 Sur 14 Sur 0 -- -- 61
2020-01-18 13:00:00 14.9 2 Sur 5 Sur 0 -- -- 70
2020-01-18 12:00:00 13.3 0 Calma 5 Sudeste 0 -- -- 74
2020-01-18 11:00:00 11.7 2 Sur 5 Norte 0 -- -- 98
2020-01-18 10:00:00 8.7 2 Norte 4 Norte 0 -- -- 100
2020-01-18 09:00:00 6.9 0 Calma 4 Norte 0 -- -- 100
2020-01-18 08:00:00 6 0 Calma 4 Nordeste 0 -- -- 100
2020-01-18 07:00:00 6.3 0 Calma 5 Este 0 -- -- 100
2020-01-18 06:00:00 7 4 Norte 6 Norte 0 -- -- 100
2020-01-18 05:00:00 7 4 Norte 6 Norte 0 -- -- 100
2020-01-18 04:00:00 7.2 3 Nordeste 5 Nordeste 0 -- -- 99
2020-01-18 03:00:00 7.9 3 Norte 5 Norte 0 -- -- 93
2020-01-18 02:00:00 -- 2 Norte 14 Este 0 -- -- --
2020-01-18 01:00:00 12.3 2 Noroeste 17 Nordeste 0 -- -- 79
2020-01-18 00:00:00 12.9 10 Nordeste 26 Este 0 -- -- 77
2020-01-17 23:00:00 13.6 12 Este 32 Este 0 -- -- 76
2020-01-17 22:00:00 15.2 3 Sudoeste 24 Oeste 0 -- -- 63
2020-01-17 21:00:00 15.6 8 Oeste 28 Oeste 0 -- -- 55
2020-01-17 20:00:00 14 3 Noroeste 15 Sudoeste 0 -- -- 58
2020-01-17 19:00:00 14.3 3 Noroeste 23 Oeste 0 -- -- 57
2020-01-17 18:00:00 14.7 4 Noroeste 29 Oeste 0 -- -- 59
2020-01-17 17:00:00 17 7 Noroeste 26 Oeste 0 -- -- 51
2020-01-17 16:00:00 18 5 Noroeste 24 Sudoeste 0 -- -- 49
2020-01-17 15:00:00 18.8 10 Noroeste 33 Sudoeste 0 -- -- 46
2020-01-17 14:00:00 19.6 5 Noroeste 19 Oeste 0 -- -- 46
2020-01-17 13:00:00 19.3 5 Sur 20 Sur 0 -- -- 63
2020-01-17 12:00:00 17.5 13 Sur 19 Sur 0 -- -- 76
2020-01-17 11:00:00 16.3 6 Sur 14 Sudoeste 0 -- -- 90
2020-01-17 10:00:00 12.2 0 Calma 10 Norte 0 -- -- 100
2020-01-17 09:00:00 8.4 3 Norte 6 Nordeste 0 -- -- 100
2020-01-17 08:00:00 7.7 3 Norte 8 Este 0 -- -- 100
2020-01-17 07:00:00 7.8 4 Sudeste 10 Sudeste 0 -- -- 100
2020-01-17 06:00:00 6.9 3 Este 9 Este 0 -- -- 100
2020-01-17 05:00:00 6.6 2 Nordeste 6 Nordeste 0 -- -- 100
2020-01-17 04:00:00 6.8 0 Calma 4 Este 0 -- -- 100
2020-01-17 03:00:00 7.1 0 Calma 5 Sudeste 0 -- -- 100
2020-01-17 02:00:00 7.5 0 Calma 6 Norte 0 -- -- 100
2020-01-17 01:00:00 7.5 2 Este 5 Norte 0 -- -- 100
2020-01-17 00:00:00 8 3 Nordeste 6 Este 0 -- -- 100
2020-01-16 23:00:00 9.1 2 Norte 11 Sur 0 -- -- 100
2020-01-16 22:00:00 8.5 0 Calma 6 Nordeste 0 -- -- 100
2020-01-16 21:00:00 8.7 3 Norte 8 Sur 0 -- -- 100
2020-01-16 20:00:00 9.2 0 Calma 3 Sur 0 -- -- 95
2020-01-16 19:00:00 11.2 0 Calma 12 Este 0 -- -- 90
2020-01-16 18:00:00 14 7 Este 21 Este 0 -- -- 86
2020-01-16 17:00:00 15.5 11 Este 22 Este 0 -- -- 75
2020-01-16 16:00:00 17 8 Nordeste 18 Nordeste 0 -- -- 65
2020-01-16 15:00:00 19.1 3 Nordeste 12 Norte 0 -- -- 50
2020-01-16 14:00:00 19.2 2 Sur 6 Sur 0 -- -- 52
2020-01-16 13:00:00 18.6 3 Sudeste 5 Sur 0 -- -- 59
2020-01-16 12:00:00 16.3 2 Sur 4 Sur 0 -- -- 62
2020-01-16 11:00:00 14.7 2 Sur 6 Oeste 0 -- -- 74
2020-01-16 10:00:00 9.8 3 Norte 6 Norte 0 -- -- 100
2020-01-16 09:00:00 5.4 0 Calma 3 Norte 0 -- -- 100
2020-01-16 08:00:00 4.6 0 Calma 3 Norte 0 -- -- 100
2020-01-16 07:00:00 4.8 0 Calma 4 Norte 0 -- -- 100
2020-01-16 06:00:00 5 2 Norte 3 Norte 0 -- -- 100
2020-01-16 05:00:00 5.2 0 Calma 4 Sudeste 0 -- -- 100
2020-01-16 04:00:00 4.9 0 Calma 4 Noroeste 0 -- -- 100
2020-01-16 03:00:00 5 0 Calma 4 Norte 0 -- -- 100
2020-01-16 02:00:00 5.2 0 Calma 4 Norte 0 -- -- 100
2020-01-16 01:00:00 5.7 0 Calma 4 Norte 0 -- -- 100
2020-01-16 00:00:00 6.2 2 Norte 4 Noroeste 0 -- -- 100
2020-01-15 23:00:00 7 2 Norte 5 Norte 0 -- -- 99
2020-01-15 22:00:00 7.2 2 Norte 4 Norte 0 -- -- 96
2020-01-15 21:00:00 8 0 Calma 4 Norte 0 -- -- 93
2020-01-15 20:00:00 8.2 2 Norte 5 Este 0 -- -- 91
2020-01-15 19:00:00 9.3 3 Norte 8 Sudoeste 0 -- -- 86
2020-01-15 18:00:00 12.5 0 Calma 18 Sur 0 -- -- 76
2020-01-15 17:00:00 14.5 15 Sur 22 Sur 0 -- -- 72
2020-01-15 16:00:00 15.1 17 Sudoeste 25 Sudoeste 0 -- -- 70
2020-01-15 15:00:00 16.4 8 Sur 20 Sur 0 -- -- 64
2020-01-15 14:00:00 16.3 17 Sur 22 Sur 0 -- -- 64
2020-01-15 13:00:00 16.1 12 Sudoeste 30 Sur 0 -- -- 66
2020-01-15 12:00:00 15.5 21 Sur 27 Sur 0 -- -- 72
2020-01-15 11:00:00 14.8 3 Sur 9 Sudoeste 0 -- -- 79
2020-01-15 10:00:00 11.1 0 Calma 4 Norte 0 -- -- 100
2020-01-15 09:00:00 7.3 0 Calma 5 Este 0 -- -- 100
2020-01-15 08:00:00 5.9 3 Nordeste 4 Este 0 -- -- 100
2020-01-15 07:00:00 6.1 3 Norte 5 Nordeste 0 -- -- 100
2020-01-15 06:00:00 6.8 0 Calma 4 Nordeste 0 -- -- 100
2020-01-15 05:00:00 8.6 0 Calma 4 Norte 0 -- -- 98
2020-01-15 04:00:00 9.6 3 Este 9 Este 0 -- -- 100
2020-01-15 03:00:00 8 2 Nordeste 6 Nordeste 0 -- -- 100
2020-01-15 02:00:00 7 3 Norte 8 Este 0 -- -- 100
2020-01-15 01:00:00 7.1 0 Calma 9 Sur 0 -- -- 94
2020-01-15 00:00:00 11.3 8 Sur 20 Sur 0 -- -- 86
2020-01-14 23:00:00 11.5 16 Sur 20 Sur 0 -- -- 85
2020-01-14 22:00:00 11.7 13 Sur 18 Sur 0 -- -- 85
2020-01-14 21:00:00 11.5 12 Sur 18 Sur 0 -- -- 87
2020-01-14 20:00:00 11.6 8 Sudeste 19 Sur 0 -- -- 85
2020-01-14 19:00:00 12.9 12 Sur 18 Sur 0 -- -- 80
2020-01-14 18:00:00 13.5 14 Sur 23 Sur 0 -- -- 78
2020-01-14 17:00:00 15.2 17 Sur 34 Sudoeste 0 -- -- 67
2020-01-14 16:00:00 15.8 25 Sur 39 Sudoeste 0 -- -- 65
2020-01-14 15:00:00 16.2 24 Sur 36 Sur 0 -- -- 67
2020-01-14 14:00:00 16 24 Sur 41 Sudoeste 0 -- -- 68
2020-01-14 13:00:00 16 27 Sudoeste 44 Sudoeste 0 -- -- 65
2020-01-14 12:00:00 15.4 28 Sur 39 Sudoeste 0 -- -- 70
2020-01-14 11:00:00 14.2 22 Sur 31 Sur 0 -- -- 81
2020-01-14 10:00:00 9.4 0 Calma 4 Norte 0 -- -- 100
2020-01-14 09:00:00 5.2 0 Calma 4 Norte 0 -- -- 100
2020-01-14 08:00:00 4.5 0 Calma 4 Norte 0 -- -- 100
2020-01-14 07:00:00 4.8 0 Calma 6 Nordeste 0 -- -- 100
2020-01-14 06:00:00 4.7 3 Norte 5 Norte 0 -- -- 100
2020-01-14 05:00:00 5 0 Calma 5 Sudeste 0 -- -- 100
2020-01-14 04:00:00 5.2 3 Norte 5 Norte 0 -- -- 100
2020-01-14 03:00:00 6 3 Norte 6 Norte 0 -- -- 100
2020-01-14 02:00:00 6.3 0 Calma 8 Oeste 0 -- -- 100
2020-01-14 01:00:00 5.9 2 Nordeste 5 Oeste 0 -- -- 100
2020-01-14 00:00:00 6.1 0 Calma 5 Sudeste 0 -- -- 100
2020-01-13 23:00:00 6.8 3 Norte 12 Sudoeste 0 -- -- 97
2020-01-13 22:00:00 8.1 0 Calma 11 Sudeste 0 -- -- 95
2020-01-13 21:00:00 7.7 0 Calma 4 Sudoeste 0 -- -- 95
2020-01-13 20:00:00 8.9 2 Norte 8 Sudeste 0 -- -- 89
2020-01-13 19:00:00 11.2 0 Calma 17 Sur 0 -- -- 81
2020-01-13 18:00:00 12.9 14 Sur 24 Sur 0 -- -- 77
2020-01-13 17:00:00 14.4 18 Sur 24 Sur 0 -- -- 72
2020-01-13 16:00:00 15.5 3 Este 10 Este 0 -- -- 61
2020-01-13 15:00:00 17.7 3 Este 10 Nordeste 0 -- -- 51
2020-01-13 14:00:00 17.9 4 Sur 8 Sudoeste 0 -- -- 49
2020-01-13 13:00:00 17.3 4 Sur 9 Sudeste 0 -- -- 53
2020-01-13 12:00:00 14.8 2 Sudeste 6 Sudoeste 0 -- -- 62
2020-01-13 11:00:00 12.6 0 Calma 5 Norte 0 -- -- 67
2020-01-13 10:00:00 7.2 4 Norte 7 Norte 0 -- -- 100
2020-01-13 09:00:00 3.3 0 Calma 2 Sur 0 -- -- 100
2020-01-13 08:00:00 2.2 0 Calma 3 Norte 0 -- -- 100
2020-01-13 07:00:00 2.2 2 Norte 3 Norte 0 -- -- 100
2020-01-13 06:00:00 2.8 0 Calma 2 Sudoeste 0 -- -- 100
2020-01-13 05:00:00 3.4 0 Calma 4 Sudeste 0 -- -- 100
2020-01-13 04:00:00 3.4 0 Calma 4 Nordeste 0 -- -- 100
2020-01-13 03:00:00 3.8 0 Calma 4 Norte 0 -- -- 100
2020-01-13 02:00:00 4.3 0 Calma 3 Noroeste 0 -- -- 100
2020-01-13 01:00:00 5.2 2 Norte 4 Norte 0 -- -- 99
2020-01-13 00:00:00 6.6 2 Norte 7 Sudeste 0 -- -- 97
2020-01-12 23:00:00 7.5 0 Calma 6 Sur 0 -- -- 96
2020-01-12 22:00:00 8.4 0 Calma 13 Norte 0 -- -- 94
2020-01-12 21:00:00 9.3 0 Calma 13 Norte 0 -- -- 86
2020-01-12 20:00:00 9.6 3 Norte 15 Noroeste 0 -- -- 84
2020-01-12 19:00:00 10.8 6 Norte 18 Norte 0 -- -- 80
2020-01-12 18:00:00 11.2 5 Norte 18 Norte 0 -- -- 77
2020-01-12 17:00:00 13.1 7 Norte 23 Norte 0 -- -- 69
2020-01-12 16:00:00 14 13 Norte 29 Nordeste 0 -- -- 66
2020-01-12 15:00:00 14.8 12 Norte 26 Norte 0 -- -- 62
2020-01-12 14:00:00 14.9 7 Norte 30 Norte 0 -- -- 61
2020-01-12 13:00:00 14.9 12 Norte 30 Norte 0 -- -- 60
2020-01-12 12:00:00 14.4 9 Norte 30 Norte 0 -- -- 60
2020-01-12 11:00:00 14.2 6 Norte 24 Nordeste 0 -- -- 61
2020-01-12 10:00:00 13.2 5 Norte 21 Nordeste 0 -- -- 64
2020-01-12 09:00:00 11.7 5 Norte 22 Norte 0 -- -- 69
2020-01-12 08:00:00 11.1 7 Norte 22 Norte 0 -- -- 71
2020-01-12 07:00:00 11.5 6 Norte 21 Norte 0 -- -- 69
2020-01-12 06:00:00 11.8 7 Norte 19 Norte 0 -- -- 67
2020-01-12 05:00:00 12 5 Norte 19 Norte 0 -- -- 65
2020-01-12 04:00:00 12 6 Norte 17 Norte 0 -- -- 65
2020-01-12 03:00:00 12.2 7 Norte 24 Norte 0 -- -- 66
2020-01-12 02:00:00 11.7 8 Norte 24 Norte 0 -- -- 67
2020-01-12 01:00:00 11.6 10 Norte 28 Norte 0 -- -- 65
2020-01-12 00:00:00 11.7 10 Norte 25 Noroeste 0 -- -- 69
2020-01-11 23:00:00 11.5 8 Norte 22 Noroeste 0 -- -- 71
2020-01-11 22:00:00 11.5 8 Norte 25 Norte 0 -- -- 72
2020-01-11 21:00:00 11.6 12 Norte 32 Nordeste 0 -- -- 70
2020-01-11 20:00:00 11.6 10 Norte 27 Nordeste 0 -- -- 71
2020-01-11 19:00:00 11.5 9 Norte 25 Norte 0 -- -- 71
2020-01-11 18:00:00 11.5 11 Norte 37 Noroeste 0 -- -- 71
2020-01-11 17:00:00 11.8 8 Norte 30 Noroeste 0 -- -- 71
2020-01-11 16:00:00 12.1 12 Norte 41 Norte 0 -- -- 68
2020-01-11 15:00:00 12.9 17 Norte 37 Nordeste 0 -- -- 66
2020-01-11 14:00:00 13.2 16 Norte 44 Norte 0 -- -- 64
2020-01-11 13:00:00 14.3 14 Norte 45 Norte 0 -- -- 60
2020-01-11 12:00:00 14.3 14 Nordeste 41 Norte 0 -- -- 57
2020-01-11 11:00:00 14.3 11 Nordeste 33 Este 0 -- -- 60
2020-01-11 10:00:00 12.8 12 Nordeste 32 Nordeste 0 -- -- 67
2020-01-11 09:00:00 11.9 10 Nordeste 33 Este 0 -- -- 71
2020-01-11 08:00:00 12.1 15 Nordeste 37 Norte 0 -- -- 70
2020-01-11 07:00:00 12.3 13 Nordeste 33 Nordeste 0 -- -- 74
2020-01-11 06:00:00 12.2 11 Nordeste 28 Este 0 -- -- 73
2020-01-11 05:00:00 12.4 9 Nordeste 29 Norte 0 -- -- 73
2020-01-11 04:00:00 12.6 10 Nordeste 38 Norte 0 -- -- 73
2020-01-11 03:00:00 12.9 17 Nordeste 37 Nordeste 0 -- -- 74
2020-01-11 02:00:00 13 13 Nordeste 33 Este 0 -- -- 74
2020-01-11 01:00:00 12.9 13 Nordeste 40 Norte 0 -- -- 70
2020-01-11 00:00:00 13.1 12 Nordeste 44 Este 0 -- -- 67
2020-01-10 23:00:00 13.3 17 Nordeste 44 Nordeste 0 -- -- 69
2020-01-10 22:00:00 13.4 16 Nordeste 32 Nordeste 0 -- -- 72
2020-01-10 21:00:00 13.4 8 Nordeste 37 Nordeste 0 -- -- 73
2020-01-10 20:00:00 13.2 12 Nordeste 28 Nordeste 0 -- -- 72
2020-01-10 19:00:00 13.2 11 Nordeste 31 Norte 0 -- -- 73
2020-01-10 18:00:00 13.1 12 Norte 44 Norte 0 -- -- 75
2020-01-10 17:00:00 13.2 15 Nordeste 44 Norte 0 -- -- 73
2020-01-10 16:00:00 12.7 14 Nordeste 35 Norte 0.6 -- -- 85
2020-01-10 15:00:00 13.8 11 Nordeste 36 Este 0 -- -- 75
2020-01-10 14:00:00 14.1 11 Nordeste 38 Este 0 -- -- 75
2020-01-10 13:00:00 13.6 12 Nordeste 32 Nordeste 0 -- -- 79
2020-01-10 12:00:00 13.1 12 Nordeste 26 Nordeste 0 -- -- 86
2020-01-10 11:00:00 13.4 3 Nordeste 10 Este 0 -- -- 100
2020-01-10 10:00:00 10.3 0 Calma 5 Sudeste 0 -- -- 100
2020-01-10 09:00:00 7.7 0 Calma 4 Norte 0 -- -- 100
2020-01-10 08:00:00 5.8 0 Calma 3 Norte 0 -- -- 100
2020-01-10 07:00:00 5.9 0 Calma 4 Norte 0 -- -- 100
2020-01-10 06:00:00 5.9 3 Norte 4 Norte 0 -- -- 100
2020-01-10 05:00:00 6.7 3 Norte 6 Sudeste 0 -- -- 100
2020-01-10 04:00:00 6.8 0 Calma 4 Sur 0 -- -- 100
2020-01-10 03:00:00 7 0 Calma 4 Norte 0 -- -- 100
2020-01-10 02:00:00 7.2 2 Nordeste 5 Nordeste 0 -- -- 100
2020-01-10 01:00:00 7.6 0 Calma 8 Sudeste 0 -- -- 100
2020-01-10 00:00:00 7.4 0 Calma 3 Este 0 -- -- 100
2020-01-09 23:00:00 7.7 0 Calma 3 Nordeste 0 -- -- 98
2020-01-09 22:00:00 8.7 0 Calma 3 Norte 0 -- -- 94
2020-01-09 21:00:00 10.4 2 Norte 4 Oeste 0 -- -- 91
2020-01-09 20:00:00 11.4 2 Nordeste 5 Sudoeste 0 -- -- 89
2020-01-09 19:00:00 11.5 3 Norte 7 Norte 0 -- -- 86
2020-01-09 18:00:00 12.7 2 Norte 6 Norte 0 -- -- 83
2020-01-09 17:00:00 14 2 Norte 5 Norte 0 -- -- 75
2020-01-09 16:00:00 15.8 2 Noroeste 11 Noroeste 0 -- -- 66
2020-01-09 15:00:00 18.3 4 Sudeste 10 Este 0 -- -- 62
2020-01-09 14:00:00 18 3 Sudeste 9 Sudoeste 0 -- -- 65
2020-01-09 13:00:00 17.3 4 Este 9 Este 0 -- -- 69
2020-01-09 12:00:00 16.2 4 Sur 8 Sudoeste 0 -- -- 74
2020-01-09 11:00:00 14.2 2 Sur 4 Sur 0 -- -- 84
2020-01-09 10:00:00 10.5 0 Calma 3 Norte 0 -- -- 100
2020-01-09 09:00:00 6.3 0 Calma 4 Norte 0 -- -- 100
2020-01-09 08:00:00 5.4 2 Norte 3 Norte 0 -- -- 100
2020-01-09 07:00:00 5.6 2 Noroeste 3 Noroeste 0 -- -- 100
2020-01-09 06:00:00 5.9 0 Calma 4 Nordeste 0 -- -- 100
2020-01-09 05:00:00 6.1 3 Norte 5 Norte 0 -- -- 100
2020-01-09 04:00:00 6.4 2 Norte 4 Norte 0 -- -- 100
2020-01-09 03:00:00 6.8 0 Calma 4 Norte 0 -- -- 100
2020-01-09 02:00:00 7.3 0 Calma 6 Nordeste 0 -- -- 100
2020-01-09 01:00:00 7.4 3 Norte 4 Norte 0 -- -- 99
2020-01-09 00:00:00 8.8 0 Calma 7 Nordeste 0 -- -- 98
2020-01-08 23:00:00 9 3 Norte 6 Nordeste 0 -- -- 97
2020-01-08 22:00:00 9.2 3 Norte 7 Nordeste 0 -- -- 97
2020-01-08 21:00:00 9.1 3 Norte 10 Nordeste 0 -- -- 96
2020-01-08 20:00:00 9.2 3 Norte 6 Nordeste 0 -- -- 94
2020-01-08 19:00:00 10.2 3 Norte 6 Norte 0 -- -- 91
2020-01-08 18:00:00 12 2 Norte 10 Este 0 -- -- 84
2020-01-08 17:00:00 14.6 5 Nordeste 19 Este 0 -- -- 74
2020-01-08 16:00:00 16.1 5 Norte 16 Noroeste 0 -- -- 71
2020-01-08 15:00:00 16 9 Nordeste 20 Nordeste 0 -- -- 70
2020-01-08 14:00:00 15.4 7 Norte 24 Noroeste 0 -- -- 76
2020-01-08 13:00:00 15.6 10 Norte 22 Norte 0 -- -- 76
2020-01-08 12:00:00 14.4 9 Norte 28 Nordeste 0 -- -- 78
2020-01-08 11:00:00 14.5 12 Norte 28 Nordeste 0 -- -- 74
2020-01-08 10:00:00 13.9 8 Norte 31 Norte 0 -- -- 77
2020-01-08 09:00:00 13.8 13 Norte 32 Nordeste 0 -- -- 77
2020-01-08 08:00:00 12.8 6 Norte 24 Noroeste 0 -- -- 85
2020-01-08 07:00:00 12.7 6 Noroeste 22 Norte 0 -- -- 86
2020-01-08 06:00:00 12.6 7 Noroeste 17 Noroeste 0 -- -- 88
2020-01-08 05:00:00 12.3 4 Noroeste 23 Sudoeste 0 -- -- 87
2020-01-08 04:00:00 11.7 7 Norte 18 Norte 0 -- -- 92
2020-01-08 03:00:00 9 0 Calma 8 Sudoeste 0 -- -- 98
2020-01-08 02:00:00 9.4 4 Sudeste 7 Sudeste 0 -- -- 94
2020-01-08 01:00:00 10.3 4 Sur 10 Sudeste 0 -- -- 92
2020-01-08 00:00:00 10.6 3 Sur 12 Sudeste 0 -- -- 90
2020-01-07 23:00:00 12.4 4 Noroeste 16 Oeste 0 -- -- 70
2020-01-07 22:00:00 11.3 3 Sudoeste 14 Sudoeste 0 -- -- 82
2020-01-07 21:00:00 8.7 2 Noroeste 5 Sudeste 0 -- -- 91
2020-01-07 20:00:00 9.2 0 Calma 5 Oeste 0 -- -- 89
2020-01-07 19:00:00 11.2 0 Calma 17 Norte 0 -- -- 81
2020-01-07 18:00:00 12.4 3 Noroeste 15 Norte 0 -- -- 79
2020-01-07 17:00:00 14.6 3 Noroeste 23 Noroeste 0 -- -- 74
2020-01-07 16:00:00 15.8 6 Noroeste 19 Norte 0 -- -- 73
2020-01-07 15:00:00 16 6 Norte 22 Norte 0 -- -- 72
2020-01-07 14:00:00 15.5 6 Norte 18 Norte 0 -- -- 74
2020-01-07 13:00:00 15.7 5 Norte 17 Norte 0 -- -- 76
2020-01-07 12:00:00 15.3 4 Norte 21 Norte 0 -- -- 77
2020-01-07 11:00:00 15.2 4 Norte 16 Nordeste 0 -- -- 75
2020-01-07 10:00:00 15.5 6 Norte 13 Norte 0 -- -- 77
2020-01-07 09:00:00 12.3 4 Norte 12 Norte 0 -- -- 88
2020-01-07 08:00:00 12.2 4 Norte 15 Noroeste 0 -- -- 90
2020-01-07 07:00:00 12.3 4 Norte 14 Norte 0 -- -- 90
2020-01-07 06:00:00 11.8 0 Calma 6 Norte 0 -- -- 92
2020-01-07 05:00:00 13 2 Norte 9 Norte 0 -- -- 85
2020-01-07 04:00:00 12.8 3 Norte 9 Norte 0 -- -- 86
2020-01-07 03:00:00 12.4 4 Norte 13 Norte 0 -- -- 86
2020-01-07 02:00:00 12.7 6 Norte 16 Noroeste 0 -- -- 87
2020-01-07 01:00:00 12.7 6 Norte 15 Noroeste 0 -- -- 85
2020-01-07 00:00:00 11.8 5 Norte 12 Norte 0 -- -- 88
2020-01-06 23:00:00 12.7 5 Norte 13 Norte 0 -- -- 82
2020-01-06 22:00:00 13 4 Norte 10 Norte 0 -- -- 78
2020-01-06 21:00:00 13.6 3 Norte 10 Norte 0 -- -- 79
2020-01-06 20:00:00 13.9 5 Norte 15 Nordeste 0 -- -- 77
2020-01-06 19:00:00 13.8 2 Noroeste 13 Norte 0 -- -- 78
2020-01-06 18:00:00 13.9 4 Norte 14 Norte 0 -- -- 79
2020-01-06 17:00:00 14.1 6 Norte 17 Norte 0 -- -- 79
2020-01-06 16:00:00 14.3 8 Norte 17 Norte 0 -- -- 78
2020-01-06 15:00:00 14.4 6 Norte 15 Norte 0 -- -- 75
2020-01-06 14:00:00 14.5 4 Norte 12 Nordeste 0 -- -- 78
2020-01-06 13:00:00 14.3 5 Norte 11 Norte 0 -- -- 80
2020-01-06 12:00:00 13.7 0 Calma 7 Norte 0 -- -- 84
2020-01-06 11:00:00 13.6 0 Calma 7 Norte 0 -- -- 79
2020-01-06 10:00:00 13.4 2 Norte 13 Norte 0 -- -- 78